sensor_id;sensor_type;location;lat;lon;timestamp;pressure;altitude;pressure_sealevel;temperature;humidity
43770;BME280;6597;52.218;9.882;2022-09-04T00:01:13;100865.06;;;14.21;66.35
43770;BME280;6597;52.218;9.882;2022-09-04T00:03:47;100869.56;;;14.19;66.72
43770;BME280;6597;52.218;9.882;2022-09-04T00:06:19;100880.25;;;14.16;66.34
43770;BME280;6597;52.218;9.882;2022-09-04T00:09:02;100867.22;;;14.13;66.37
43770;BME280;6597;52.218;9.882;2022-09-04T00:11:41;100877.38;;;14.03;66.15
43770;BME280;6597;52.218;9.882;2022-09-04T00:14:14;100869.66;;;13.98;66.97
43770;BME280;6597;52.218;9.882;2022-09-04T00:16:46;100871.38;;;13.99;66.18
43770;BME280;6597;52.218;9.882;2022-09-04T00:19:22;100880.22;;;13.98;66.70
43770;BME280;6597;52.218;9.882;2022-09-04T00:21:55;100886.47;;;13.96;67.26
43770;BME280;6597;52.218;9.882;2022-09-04T00:24:24;100883.28;;;13.89;67.63
43770;BME280;6597;52.218;9.882;2022-09-04T00:26:58;100882.91;;;13.78;67.47
43770;BME280;6597;52.218;9.882;2022-09-04T00:29:33;100876.09;;;13.74;67.55
43770;BME280;6597;52.218;9.882;2022-09-04T00:32:12;100876.38;;;13.68;68.82
43770;BME280;6597;52.218;9.882;2022-09-04T00:34:47;100868.44;;;13.68;68.38
43770;BME280;6597;52.218;9.882;2022-09-04T00:37:19;100878.22;;;13.66;67.69
43770;BME280;6597;52.218;9.882;2022-09-04T00:39:53;100875.84;;;13.60;68.50
43770;BME280;6597;52.218;9.882;2022-09-04T00:42:34;100876.75;;;13.59;68.56
43770;BME280;6597;52.218;9.882;2022-09-04T00:45:23;100871.84;;;13.51;68.79
43770;BME280;6597;52.218;9.882;2022-09-04T00:48:16;100875.91;;;13.39;69.40
43770;BME280;6597;52.218;9.882;2022-09-04T00:51:02;100878.34;;;13.24;69.71
43770;BME280;6597;52.218;9.882;2022-09-04T00:53:49;100874.13;;;13.20;70.06
43770;BME280;6597;52.218;9.882;2022-09-04T00:56:33;100873.22;;;13.21;69.98
43770;BME280;6597;52.218;9.882;2022-09-04T00:59:16;100871.75;;;13.14;70.83
43770;BME280;6597;52.218;9.882;2022-09-04T01:01:45;100877.09;;;13.12;70.62
43770;BME280;6597;52.218;9.882;2022-09-04T01:04:27;100875.38;;;13.11;70.95
43770;BME280;6597;52.218;9.882;2022-09-04T01:07:10;100879.78;;;13.11;70.78
43770;BME280;6597;52.218;9.882;2022-09-04T01:10:04;100869.38;;;13.07;70.85
43770;BME280;6597;52.218;9.882;2022-09-04T01:12:41;100880.91;;;13.05;71.33
43770;BME280;6597;52.218;9.882;2022-09-04T01:15:17;100879.34;;;13.01;71.22
43770;BME280;6597;52.218;9.882;2022-09-04T01:18:01;100873.44;;;12.94;71.59
43770;BME280;6597;52.218;9.882;2022-09-04T01:20:43;100872.78;;;12.89;71.94
43770;BME280;6597;52.218;9.882;2022-09-04T01:23:28;100871.41;;;12.81;71.95
43770;BME280;6597;52.218;9.882;2022-09-04T01:26:05;100868.72;;;12.82;72.65
43770;BME280;6597;52.218;9.882;2022-09-04T01:28:40;100884.31;;;12.87;72.74
43770;BME280;6597;52.218;9.882;2022-09-04T01:31:15;100875.56;;;12.86;72.73
43770;BME280;6597;52.218;9.882;2022-09-04T01:33:52;100878.41;;;12.82;72.71
43770;BME280;6597;52.218;9.882;2022-09-04T01:36:31;100889.19;;;12.75;73.01
43770;BME280;6597;52.218;9.882;2022-09-04T01:39:01;100896.44;;;12.70;73.01
43770;BME280;6597;52.218;9.882;2022-09-04T01:41:31;100901.81;;;12.67;73.70
43770;BME280;6597;52.218;9.882;2022-09-04T01:43:59;100901.06;;;12.64;73.58
43770;BME280;6597;52.218;9.882;2022-09-04T01:46:38;100906.28;;;12.65;73.70
43770;BME280;6597;52.218;9.882;2022-09-04T01:49:14;100904.50;;;12.66;74.33
43770;BME280;6597;52.218;9.882;2022-09-04T01:51:59;100903.78;;;12.62;74.83
43770;BME280;6597;52.218;9.882;2022-09-04T01:54:37;100917.06;;;12.59;74.95
43770;BME280;6597;52.218;9.882;2022-09-04T01:57:14;100918.13;;;12.55;74.53
43770;BME280;6597;52.218;9.882;2022-09-04T01:59:53;100907.72;;;12.52;74.35
43770;BME280;6597;52.218;9.882;2022-09-04T02:02:28;100906.06;;;12.50;74.91
43770;BME280;6597;52.218;9.882;2022-09-04T02:05:00;100913.16;;;12.48;75.09
43770;BME280;6597;52.218;9.882;2022-09-04T02:07:34;100908.09;;;12.43;75.07
43770;BME280;6597;52.218;9.882;2022-09-04T02:10:06;100907.31;;;12.41;75.78
43770;BME280;6597;52.218;9.882;2022-09-04T02:12:41;100912.56;;;12.41;75.97
43770;BME280;6597;52.218;9.882;2022-09-04T02:15:21;100908.09;;;12.43;75.94
43770;BME280;6597;52.218;9.882;2022-09-04T02:18:00;100904.53;;;12.44;76.01
43770;BME280;6597;52.218;9.882;2022-09-04T02:20:38;100902.69;;;12.46;75.67
43770;BME280;6597;52.218;9.882;2022-09-04T02:23:10;100903.75;;;12.42;75.94
43770;BME280;6597;52.218;9.882;2022-09-04T02:25:48;100903.88;;;12.39;75.75
43770;BME280;6597;52.218;9.882;2022-09-04T02:28:29;100915.41;;;12.35;75.86
43770;BME280;6597;52.218;9.882;2022-09-04T02:31:05;100911.44;;;12.25;76.07
43770;BME280;6597;52.218;9.882;2022-09-04T02:33:41;100909.13;;;12.17;76.35
43770;BME280;6597;52.218;9.882;2022-09-04T02:36:15;100911.81;;;12.15;76.89
43770;BME280;6597;52.218;9.882;2022-09-04T02:38:53;100918.13;;;12.11;76.95
43770;BME280;6597;52.218;9.882;2022-09-04T02:41:25;100919.84;;;12.12;77.05
43770;BME280;6597;52.218;9.882;2022-09-04T02:44:06;100912.13;;;12.08;77.18
43770;BME280;6597;52.218;9.882;2022-09-04T02:46:43;100914.00;;;12.04;77.28
43770;BME280;6597;52.218;9.882;2022-09-04T02:49:19;100915.81;;;12.02;77.65
43770;BME280;6597;52.218;9.882;2022-09-04T02:51:59;100911.41;;;12.03;77.30
43770;BME280;6597;52.218;9.882;2022-09-04T02:54:45;100920.28;;;12.00;78.04
43770;BME280;6597;52.218;9.882;2022-09-04T02:57:26;100921.19;;;11.99;77.58
43770;BME280;6597;52.218;9.882;2022-09-04T03:00:01;100916.78;;;12.00;77.94
43770;BME280;6597;52.218;9.882;2022-09-04T03:02:36;100916.78;;;12.00;78.21
43770;BME280;6597;52.218;9.882;2022-09-04T03:05:10;100915.13;;;11.97;77.67
43770;BME280;6597;52.218;9.882;2022-09-04T03:07:47;100912.94;;;11.87;77.79
43770;BME280;6597;52.218;9.882;2022-09-04T03:10:19;100915.03;;;11.77;78.23
43770;BME280;6597;52.218;9.882;2022-09-04T03:12:53;100910.69;;;11.76;78.13
43770;BME280;6597;52.218;9.882;2022-09-04T03:15:26;100918.69;;;11.73;78.70
43770;BME280;6597;52.218;9.882;2022-09-04T03:17:58;100924.03;;;11.70;79.14
43770;BME280;6597;52.218;9.882;2022-09-04T03:20:30;100915.25;;;11.71;79.60
43770;BME280;6597;52.218;9.882;2022-09-04T03:23:03;100926.47;;;11.76;79.02
43770;BME280;6597;52.218;9.882;2022-09-04T03:25:52;100936.13;;;11.75;79.53
43770;BME280;6597;52.218;9.882;2022-09-04T03:28:29;100927.50;;;11.72;79.26
43770;BME280;6597;52.218;9.882;2022-09-04T03:31:08;100933.50;;;11.75;78.98
43770;BME280;6597;52.218;9.882;2022-09-04T03:33:43;100944.94;;;11.74;79.33
43770;BME280;6597;52.218;9.882;2022-09-04T03:36:19;100946.69;;;11.74;79.88
43770;BME280;6597;52.218;9.882;2022-09-04T03:38:57;100947.63;;;11.73;79.99
43770;BME280;6597;52.218;9.882;2022-09-04T03:41:35;100951.00;;;11.76;79.50
43770;BME280;6597;52.218;9.882;2022-09-04T03:44:15;100956.31;;;11.75;79.15
43770;BME280;6597;52.218;9.882;2022-09-04T03:46:56;100955.50;;;11.73;80.04
43770;BME280;6597;52.218;9.882;2022-09-04T03:49:37;100958.13;;;11.73;80.23
43770;BME280;6597;52.218;9.882;2022-09-04T03:52:12;100958.94;;;11.75;79.96
43770;BME280;6597;52.218;9.882;2022-09-04T03:55:01;100960.66;;;11.76;80.05
43770;BME280;6597;52.218;9.882;2022-09-04T03:57:50;100959.84;;;11.74;80.01
43770;BME280;6597;52.218;9.882;2022-09-04T04:00:21;100964.38;;;11.69;80.30
43770;BME280;6597;52.218;9.882;2022-09-04T04:03:03;100962.72;;;11.66;80.17
43770;BME280;6597;52.218;9.882;2022-09-04T04:05:51;100961.31;;;11.58;79.97
43770;BME280;6597;52.218;9.882;2022-09-04T04:08:47;100957.34;;;11.46;79.66
43770;BME280;6597;52.218;9.882;2022-09-04T04:11:39;100968.22;;;11.35;80.12
43770;BME280;6597;52.218;9.882;2022-09-04T04:14:30;100974.59;;;11.28;80.19
43770;BME280;6597;52.218;9.882;2022-09-04T04:17:09;100978.09;;;11.29;80.83
43770;BME280;6597;52.218;9.882;2022-09-04T04:19:52;100980.66;;;11.30;80.80
43770;BME280;6597;52.218;9.882;2022-09-04T04:22:43;100973.59;;;11.32;80.94
43770;BME280;6597;52.218;9.882;2022-09-04T04:25:36;100974.38;;;11.34;80.56
43770;BME280;6597;52.218;9.882;2022-09-04T04:28:17;100977.00;;;11.34;80.72
43770;BME280;6597;52.218;9.882;2022-09-04T04:30:49;100984.09;;;11.32;80.72
43770;BME280;6597;52.218;9.882;2022-09-04T04:33:29;100987.59;;;11.33;81.26
43770;BME280;6597;52.218;9.882;2022-09-04T04:36:08;100988.38;;;11.35;80.89
43770;BME280;6597;52.218;9.882;2022-09-04T04:41:34;101001.47;;;11.36;81.37
43770;BME280;6597;52.218;9.882;2022-09-04T04:44:31;101001.53;;;11.35;81.81
43770;BME280;6597;52.218;9.882;2022-09-04T04:47:29;101006.84;;;11.33;81.54
43770;BME280;6597;52.218;9.882;2022-09-04T04:50:07;101012.09;;;11.33;80.97
43770;BME280;6597;52.218;9.882;2022-09-04T04:52:49;101010.59;;;11.26;81.13
43770;BME280;6597;52.218;9.882;2022-09-04T04:55:29;101013.47;;;11.18;81.45
43770;BME280;6597;52.218;9.882;2022-09-04T04:58:22;101016.97;;;11.19;82.10
43770;BME280;6597;52.218;9.882;2022-09-04T05:01:01;101016.97;;;11.19;81.86
43770;BME280;6597;52.218;9.882;2022-09-04T05:03:41;101017.72;;;11.22;81.97
43770;BME280;6597;52.218;9.882;2022-09-04T05:06:12;101026.41;;;11.25;81.93
43770;BME280;6597;52.218;9.882;2022-09-04T05:08:51;101020.25;;;11.26;81.82
43770;BME280;6597;52.218;9.882;2022-09-04T05:11:24;101022.78;;;11.29;82.42
43770;BME280;6597;52.218;9.882;2022-09-04T05:14:00;101022.59;;;11.33;82.14
43770;BME280;6597;52.218;9.882;2022-09-04T05:16:35;101026.84;;;11.37;82.26
43770;BME280;6597;52.218;9.882;2022-09-04T05:19:11;101031.16;;;11.40;82.43
43770;BME280;6597;52.218;9.882;2022-09-04T05:21:47;101033.69;;;11.43;82.06
43770;BME280;6597;52.218;9.882;2022-09-04T05:24:22;101038.84;;;11.46;82.33
43770;BME280;6597;52.218;9.882;2022-09-04T05:26:56;101035.19;;;11.50;82.26
43770;BME280;6597;52.218;9.882;2022-09-04T05:29:34;101045.50;;;11.56;82.30
43770;BME280;6597;52.218;9.882;2022-09-04T05:32:12;101046.06;;;11.64;82.45
43770;BME280;6597;52.218;9.882;2022-09-04T05:34:57;101047.59;;;11.71;81.91
43770;BME280;6597;52.218;9.882;2022-09-04T05:37:30;101057.16;;;11.74;81.95
43770;BME280;6597;52.218;9.882;2022-09-04T05:40:03;101063.03;;;11.82;82.30
43770;BME280;6597;52.218;9.882;2022-09-04T05:42:41;101067.22;;;11.88;82.54
43770;BME280;6597;52.218;9.882;2022-09-04T05:45:20;101067.72;;;11.97;82.29
43770;BME280;6597;52.218;9.882;2022-09-04T05:47:56;101061.31;;;12.06;81.88
43770;BME280;6597;52.218;9.882;2022-09-04T05:50:36;101062.84;;;12.11;81.56
43770;BME280;6597;52.218;9.882;2022-09-04T05:53:32;101076.59;;;12.20;81.27
43770;BME280;6597;52.218;9.882;2022-09-04T05:59:31;101066.69;;;12.26;80.63
43770;BME280;6597;52.218;9.882;2022-09-04T06:02:16;101071.88;;;12.28;81.11
43770;BME280;6597;52.218;9.882;2022-09-04T06:04:56;101067.41;;;12.30;81.43
43770;BME280;6597;52.218;9.882;2022-09-04T06:07:27;101070.78;;;12.33;81.69
43770;BME280;6597;52.218;9.882;2022-09-04T06:09:58;101074.03;;;12.41;82.04
43770;BME280;6597;52.218;9.882;2022-09-04T06:12:51;101083.34;;;12.50;82.09
43770;BME280;6597;52.218;9.882;2022-09-04T06:15:35;101077.72;;;12.59;82.22
43770;BME280;6597;52.218;9.882;2022-09-04T06:18:12;101072.00;;;12.71;82.36
43770;BME280;6597;52.218;9.882;2022-09-04T06:20:59;101081.97;;;12.85;82.26
43770;BME280;6597;52.218;9.882;2022-09-04T06:23:51;101087.53;;;13.01;81.52
43770;BME280;6597;52.218;9.882;2022-09-04T06:26:28;101094.25;;;13.08;80.69
43770;BME280;6597;52.218;9.882;2022-09-04T06:29:11;101094.72;;;13.19;80.04
43770;BME280;6597;52.218;9.882;2022-09-04T06:31:55;101094.09;;;13.34;79.61
43770;BME280;6597;52.218;9.882;2022-09-04T06:34:39;101100.56;;;13.48;79.00
43770;BME280;6597;52.218;9.882;2022-09-04T06:37:16;101105.25;;;13.61;78.75
43770;BME280;6597;52.218;9.882;2022-09-04T06:39:53;101103.78;;;13.76;77.70
43770;BME280;6597;52.218;9.882;2022-09-04T06:42:35;101099.94;;;13.83;77.13
43770;BME280;6597;52.218;9.882;2022-09-04T06:45:21;101096.69;;;13.97;76.29
43770;BME280;6597;52.218;9.882;2022-09-04T06:48:02;101097.22;;;14.05;76.31
43770;BME280;6597;52.218;9.882;2022-09-04T06:50:43;101097.47;;;14.19;75.83
43770;BME280;6597;52.218;9.882;2022-09-04T06:53:17;101089.91;;;14.30;76.48
43770;BME280;6597;52.218;9.882;2022-09-04T06:56:02;101097.75;;;14.52;76.37
43770;BME280;6597;52.218;9.882;2022-09-04T06:58:56;101101.13;;;14.75;74.58
43770;BME280;6597;52.218;9.882;2022-09-04T07:01:30;101102.88;;;14.93;74.29
43770;BME280;6597;52.218;9.882;2022-09-04T07:04:12;101108.03;;;15.15;73.31
43770;BME280;6597;52.218;9.882;2022-09-04T07:06:48;101110.78;;;15.31;72.86
43770;BME280;6597;52.218;9.882;2022-09-04T07:09:18;101113.91;;;15.56;72.02
43770;BME280;6597;52.218;9.882;2022-09-04T07:12:12;101111.63;;;15.84;71.23
43770;BME280;6597;52.218;9.882;2022-09-04T07:15:10;101109.53;;;16.24;69.80
43770;BME280;6597;52.218;9.882;2022-09-04T07:17:45;101108.22;;;16.66;67.73
43770;BME280;6597;52.218;9.882;2022-09-04T07:20:24;101102.84;;;16.99;66.07
43770;BME280;6597;52.218;9.882;2022-09-04T07:23:14;101107.84;;;17.35;65.45
43770;BME280;6597;52.218;9.882;2022-09-04T07:25:47;101104.78;;;17.72;63.92
43770;BME280;6597;52.218;9.882;2022-09-04T07:28:33;101102.88;;;18.04;61.82
43770;BME280;6597;52.218;9.882;2022-09-04T07:31:08;101105.06;;;18.41;60.95
43770;BME280;6597;52.218;9.882;2022-09-04T07:33:45;101105.06;;;18.69;59.41
43770;BME280;6597;52.218;9.882;2022-09-04T07:36:19;101109.19;;;19.02;58.90
43770;BME280;6597;52.218;9.882;2022-09-04T07:38:57;101104.09;;;19.25;57.36
43770;BME280;6597;52.218;9.882;2022-09-04T07:41:37;101107.88;;;19.48;57.14
43770;BME280;6597;52.218;9.882;2022-09-04T07:44:17;101098.16;;;19.62;56.20
43770;BME280;6597;52.218;9.882;2022-09-04T07:46:56;101102.22;;;19.67;55.57
43770;BME280;6597;52.218;9.882;2022-09-04T07:49:46;101106.94;;;19.89;55.46
43770;BME280;6597;52.218;9.882;2022-09-04T07:52:32;101104.81;;;20.07;55.08
43770;BME280;6597;52.218;9.882;2022-09-04T07:55:31;101110.47;;;20.28;54.26
43770;BME280;6597;52.218;9.882;2022-09-04T07:58:45;101103.47;;;20.52;52.92
43770;BME280;6597;52.218;9.882;2022-09-04T08:04:45;101130.50;;;20.71;51.97
43770;BME280;6597;52.218;9.882;2022-09-04T08:10:21;101136.31;;;21.02;51.66
43770;BME280;6597;52.218;9.882;2022-09-04T08:13:22;101149.53;;;21.16;50.10
43770;BME280;6597;52.218;9.882;2022-09-04T08:16:03;101149.31;;;21.43;49.92
43770;BME280;6597;52.218;9.882;2022-09-04T08:18:40;101157.28;;;21.80;48.92
43770;BME280;6597;52.218;9.882;2022-09-04T08:21:26;101148.19;;;21.93;48.20
43770;BME280;6597;52.218;9.882;2022-09-04T08:24:31;101152.19;;;22.34;48.17
43770;BME280;6597;52.218;9.882;2022-09-04T08:27:09;101146.34;;;22.74;46.32
43770;BME280;6597;52.218;9.882;2022-09-04T08:29:52;101153.09;;;22.90;45.50
43770;BME280;6597;52.218;9.882;2022-09-04T08:35:26;101149.88;;;23.08;45.62
43770;BME280;6597;52.218;9.882;2022-09-04T08:38:23;101153.22;;;22.89;45.60
43770;BME280;6597;52.218;9.882;2022-09-04T08:47:11;101156.59;;;22.68;46.46
43770;BME280;6597;52.218;9.882;2022-09-04T08:55:49;101163.31;;;22.85;46.38
43770;BME280;6597;52.218;9.882;2022-09-04T09:01:57;101168.16;;;23.14;46.10
43770;BME280;6597;52.218;9.882;2022-09-04T09:11:12;101173.91;;;23.84;43.89
43770;BME280;6597;52.218;9.882;2022-09-04T09:14:06;101172.53;;;23.90;43.83
43770;BME280;6597;52.218;9.882;2022-09-04T09:16:44;101180.34;;;24.14;42.81
43770;BME280;6597;52.218;9.882;2022-09-04T09:19:36;101175.41;;;24.61;42.88
43770;BME280;6597;52.218;9.882;2022-09-04T09:22:20;101168.78;;;24.65;42.06
43770;BME280;6597;52.218;9.882;2022-09-04T09:25:15;101157.75;;;24.58;42.21
43770;BME280;6597;52.218;9.882;2022-09-04T09:28:24;101164.41;;;24.64;42.43
43770;BME280;6597;52.218;9.882;2022-09-04T09:31:41;101166.59;;;24.49;42.94
43770;BME280;6597;52.218;9.882;2022-09-04T09:34:53;101155.75;;;24.91;41.71
43770;BME280;6597;52.218;9.882;2022-09-04T09:41:03;101159.81;;;24.45;42.92
43770;BME280;6597;52.218;9.882;2022-09-04T09:46:54;101161.72;;;24.64;42.92
43770;BME280;6597;52.218;9.882;2022-09-04T09:49:57;101153.13;;;24.70;42.87
43770;BME280;6597;52.218;9.882;2022-09-04T09:52:49;101150.63;;;25.08;42.01
43770;BME280;6597;52.218;9.882;2022-09-04T09:55:56;101141.44;;;25.21;42.07
43770;BME280;6597;52.218;9.882;2022-09-04T10:02:03;101151.81;;;25.44;41.52
43770;BME280;6597;52.218;9.882;2022-09-04T10:05:11;101145.28;;;25.57;41.93
43770;BME280;6597;52.218;9.882;2022-09-04T10:07:58;101147.00;;;25.67;40.91
43770;BME280;6597;52.218;9.882;2022-09-04T10:10:48;101144.91;;;25.71;40.59
43770;BME280;6597;52.218;9.882;2022-09-04T10:13:34;101145.88;;;26.09;39.67
43770;BME280;6597;52.218;9.882;2022-09-04T10:20:20;101131.81;;;26.61;39.26
43770;BME280;6597;52.218;9.882;2022-09-04T10:27:07;101128.13;;;26.62;39.04
43770;BME280;6597;52.218;9.882;2022-09-04T10:30:07;101126.44;;;26.61;38.42
43770;BME280;6597;52.218;9.882;2022-09-04T10:33:08;101131.81;;;26.71;39.24
43770;BME280;6597;52.218;9.882;2022-09-04T10:36:01;101136.28;;;26.80;39.22
43770;BME280;6597;52.218;9.882;2022-09-04T10:38:37;101127.84;;;27.03;38.50
43770;BME280;6597;52.218;9.882;2022-09-04T10:41:37;101130.09;;;27.25;38.00
43770;BME280;6597;52.218;9.882;2022-09-04T10:44:23;101132.72;;;27.52;37.06
43770;BME280;6597;52.218;9.882;2022-09-04T10:47:01;101128.69;;;27.66;36.78
43770;BME280;6597;52.218;9.882;2022-09-04T10:49:54;101136.16;;;27.72;37.17
43770;BME280;6597;52.218;9.882;2022-09-04T10:52:42;101127.94;;;27.82;37.31
43770;BME280;6597;52.218;9.882;2022-09-04T10:55:22;101139.38;;;27.76;36.64
43770;BME280;6597;52.218;9.882;2022-09-04T11:01:00;101137.50;;;27.58;37.48
43770;BME280;6597;52.218;9.882;2022-09-04T11:03:46;101131.88;;;27.52;36.82
43770;BME280;6597;52.218;9.882;2022-09-04T11:06:37;101131.22;;;27.68;37.09
43770;BME280;6597;52.218;9.882;2022-09-04T11:09:33;101127.28;;;28.06;36.21
43770;BME280;6597;52.218;9.882;2022-09-04T11:19:01;101119.28;;;28.40;35.61
43770;BME280;6597;52.218;9.882;2022-09-04T11:22:14;101115.06;;;28.45;35.72
43770;BME280;6597;52.218;9.882;2022-09-04T11:28:32;101110.81;;;28.77;35.60
43770;BME280;6597;52.218;9.882;2022-09-04T11:31:20;101104.72;;;28.67;35.24
43770;BME280;6597;52.218;9.882;2022-09-04T11:34:30;101108.44;;;28.66;34.71
43770;BME280;6597;52.218;9.882;2022-09-04T11:37:44;101111.50;;;28.79;34.68
43770;BME280;6597;52.218;9.882;2022-09-04T11:40:42;101106.22;;;29.03;34.97
43770;BME280;6597;52.218;9.882;2022-09-04T11:46:43;101102.72;;;29.27;34.32
43770;BME280;6597;52.218;9.882;2022-09-04T11:49:46;101105.91;;;29.23;34.01
43770;BME280;6597;52.218;9.882;2022-09-04T11:52:25;101105.59;;;29.42;34.17
43770;BME280;6597;52.218;9.882;2022-09-04T11:58:32;101110.56;;;30.03;33.00
43770;BME280;6597;52.218;9.882;2022-09-04T12:01:16;101104.28;;;29.95;32.92
43770;BME280;6597;52.218;9.882;2022-09-04T12:04:07;101103.44;;;29.86;32.92
43770;BME280;6597;52.218;9.882;2022-09-04T12:06:53;101101.06;;;29.83;32.55
43770;BME280;6597;52.218;9.882;2022-09-04T12:16:03;101100.75;;;30.02;33.11
43770;BME280;6597;52.218;9.882;2022-09-04T12:18:50;101110.13;;;30.39;32.14
43770;BME280;6597;52.218;9.882;2022-09-04T12:21:51;101104.06;;;30.29;32.35
43770;BME280;6597;52.218;9.882;2022-09-04T12:25:06;101102.59;;;29.86;33.00
43770;BME280;6597;52.218;9.882;2022-09-04T12:27:58;101100.91;;;29.77;33.73
43770;BME280;6597;52.218;9.882;2022-09-04T12:30:42;101093.47;;;29.95;33.41
43770;BME280;6597;52.218;9.882;2022-09-04T12:33:34;101088.53;;;29.98;33.54
43770;BME280;6597;52.218;9.882;2022-09-04T12:36:31;101094.28;;;30.12;33.14
43770;BME280;6597;52.218;9.882;2022-09-04T12:39:34;101092.88;;;30.24;33.06
43770;BME280;6597;52.218;9.882;2022-09-04T12:42:14;101093.53;;;30.42;33.36
43770;BME280;6597;52.218;9.882;2022-09-04T12:44:53;101100.44;;;30.61;33.15
43770;BME280;6597;52.218;9.882;2022-09-04T12:47:33;101094.44;;;30.74;32.20
43770;BME280;6597;52.218;9.882;2022-09-04T12:50:25;101108.44;;;30.85;32.21
43770;BME280;6597;52.218;9.882;2022-09-04T12:56:05;101094.88;;;30.85;31.70
43770;BME280;6597;52.218;9.882;2022-09-04T12:58:55;101105.19;;;30.43;32.75
43770;BME280;6597;52.218;9.882;2022-09-04T13:01:35;101111.34;;;30.28;33.31
43770;BME280;6597;52.218;9.882;2022-09-04T13:04:13;101112.34;;;30.35;32.59
43770;BME280;6597;52.218;9.882;2022-09-04T13:06:50;101115.50;;;30.47;33.14
43770;BME280;6597;52.218;9.882;2022-09-04T13:09:31;101112.97;;;30.62;32.43
43770;BME280;6597;52.218;9.882;2022-09-04T13:12:10;101106.91;;;30.91;32.68
43770;BME280;6597;52.218;9.882;2022-09-04T13:14:55;101107.53;;;31.32;31.60
43770;BME280;6597;52.218;9.882;2022-09-04T13:17:31;101111.84;;;31.41;31.03
43770;BME280;6597;52.218;9.882;2022-09-04T13:20:03;101109.88;;;31.58;31.24
43770;BME280;6597;52.218;9.882;2022-09-04T13:22:46;101106.00;;;31.52;31.73
43770;BME280;6597;52.218;9.882;2022-09-04T13:25:24;101117.34;;;31.33;31.88
43770;BME280;6597;52.218;9.882;2022-09-04T13:28:03;101116.63;;;31.08;31.65
43770;BME280;6597;52.218;9.882;2022-09-04T13:30:40;101115.78;;;30.77;32.29
43770;BME280;6597;52.218;9.882;2022-09-04T13:33:16;101118.88;;;30.49;31.93
43770;BME280;6597;52.218;9.882;2022-09-04T13:35:57;101131.34;;;29.95;33.31
43770;BME280;6597;52.218;9.882;2022-09-04T13:39:19;101118.31;;;29.58;33.42
43770;BME280;6597;52.218;9.882;2022-09-04T13:42:04;101122.03;;;29.57;33.87
43770;BME280;6597;52.218;9.882;2022-09-04T13:45:01;101119.69;;;29.70;33.84
43770;BME280;6597;52.218;9.882;2022-09-04T13:47:35;101123.72;;;29.90;32.99
43770;BME280;6597;52.218;9.882;2022-09-04T13:50:08;101110.56;;;30.03;33.34
43770;BME280;6597;52.218;9.882;2022-09-04T13:52:43;101112.88;;;29.90;32.81
43770;BME280;6597;52.218;9.882;2022-09-04T13:55:15;101116.66;;;29.65;34.17
43770;BME280;6597;52.218;9.882;2022-09-04T13:57:47;101112.19;;;29.39;34.42
43770;BME280;6597;52.218;9.882;2022-09-04T14:00:22;101118.25;;;29.25;34.67
43770;BME280;6597;52.218;9.882;2022-09-04T14:02:51;101111.13;;;29.00;35.94
43770;BME280;6597;52.218;9.882;2022-09-04T14:05:22;101120.00;;;28.92;34.84
43770;BME280;6597;52.218;9.882;2022-09-04T14:07:57;101114.81;;;28.99;34.91
43770;BME280;6597;52.218;9.882;2022-09-04T14:10:36;101116.47;;;28.92;34.63
43770;BME280;6597;52.218;9.882;2022-09-04T14:13:17;101114.22;;;28.79;35.05
43770;BME280;6597;52.218;9.882;2022-09-04T14:16:05;101117.56;;;28.73;35.48
43770;BME280;6597;52.218;9.882;2022-09-04T14:19:02;101128.13;;;28.58;35.77
43770;BME280;6597;52.218;9.882;2022-09-04T14:21:57;101115.69;;;28.65;35.41
43770;BME280;6597;52.218;9.882;2022-09-04T14:24:32;101118.00;;;28.60;35.32
43770;BME280;6597;52.218;9.882;2022-09-04T14:27:08;101118.50;;;28.56;35.65
43770;BME280;6597;52.218;9.882;2022-09-04T14:29:48;101124.72;;;28.48;36.63
43770;BME280;6597;52.218;9.882;2022-09-04T14:32:23;101123.72;;;28.57;36.41
43770;BME280;6597;52.218;9.882;2022-09-04T14:34:58;101125.00;;;28.71;35.65
43770;BME280;6597;52.218;9.882;2022-09-04T14:37:39;101117.91;;;28.70;35.66
43770;BME280;6597;52.218;9.882;2022-09-04T14:40:15;101118.31;;;28.57;35.27
43770;BME280;6597;52.218;9.882;2022-09-04T14:42:46;101121.13;;;28.39;35.73
43770;BME280;6597;52.218;9.882;2022-09-04T14:45:48;101116.81;;;28.29;35.94
43770;BME280;6597;52.218;9.882;2022-09-04T14:48:16;101119.44;;;28.20;35.95
43770;BME280;6597;52.218;9.882;2022-09-04T14:50:46;101124.00;;;28.20;36.00
43770;BME280;6597;52.218;9.882;2022-09-04T14:53:20;101113.59;;;28.25;36.64
43770;BME280;6597;52.218;9.882;2022-09-04T14:56:12;101127.91;;;28.43;36.05
43770;BME280;6597;52.218;9.882;2022-09-04T14:58:44;101121.63;;;28.77;35.37
43770;BME280;6597;52.218;9.882;2022-09-04T15:01:18;101116.69;;;28.98;35.12
43770;BME280;6597;52.218;9.882;2022-09-04T15:03:49;101124.19;;;29.29;35.05
43770;BME280;6597;52.218;9.882;2022-09-04T15:06:23;101113.53;;;29.35;34.13
43770;BME280;6597;52.218;9.882;2022-09-04T15:08:54;101107.81;;;29.30;34.51
43770;BME280;6597;52.218;9.882;2022-09-04T15:11:26;101112.66;;;29.10;34.94
43770;BME280;6597;52.218;9.882;2022-09-04T15:13:57;101113.94;;;28.90;34.64
43770;BME280;6597;52.218;9.882;2022-09-04T15:16:42;101113.38;;;28.78;35.48
43770;BME280;6597;52.218;9.882;2022-09-04T15:19:27;101114.84;;;28.65;35.48
43770;BME280;6597;52.218;9.882;2022-09-04T15:21:58;101114.63;;;28.58;35.76
43770;BME280;6597;52.218;9.882;2022-09-04T15:24:32;101115.53;;;28.33;35.75
43770;BME280;6597;52.218;9.882;2022-09-04T15:27:09;101122.84;;;28.23;36.41
43770;BME280;6597;52.218;9.882;2022-09-04T15:29:53;101120.41;;;28.11;36.21
43770;BME280;6597;52.218;9.882;2022-09-04T15:32:23;101122.38;;;28.01;36.65
43770;BME280;6597;52.218;9.882;2022-09-04T15:35:05;101121.25;;;28.12;36.55
43770;BME280;6597;52.218;9.882;2022-09-04T15:37:32;101118.72;;;28.10;36.60
43770;BME280;6597;52.218;9.882;2022-09-04T15:40:04;101119.69;;;28.01;36.59
43770;BME280;6597;52.218;9.882;2022-09-04T15:42:40;101124.84;;;27.95;36.98